sensor_id;sensor_type;location;lat;lon;timestamp;temperature;humidity
22738;DHT22;11536;50.860;4.286;2023-07-31T00:00:28;18.00;99.90
22738;DHT22;11536;50.860;4.286;2023-07-31T00:02:54;18.00;99.90
22738;DHT22;11536;50.860;4.286;2023-07-31T00:05:20;18.10;99.90
22738;DHT22;11536;50.860;4.286;2023-07-31T00:07:46;18.10;99.90
22738;DHT22;11536;50.860;4.286;2023-07-31T00:10:11;18.10;99.90
22738;DHT22;11536;50.860;4.286;2023-07-31T00:12:38;18.10;99.90
22738;DHT22;11536;50.860;4.286;2023-07-31T00:15:06;18.10;99.90
22738;DHT22;11536;50.860;4.286;2023-07-31T00:17:31;18.10;99.90
22738;DHT22;11536;50.860;4.286;2023-07-31T00:19:57;18.10;99.90
22738;DHT22;11536;50.860;4.286;2023-07-31T00:22:23;18.10;99.90
22738;DHT22;11536;50.860;4.286;2023-07-31T00:24:49;18.20;99.90
22738;DHT22;11536;50.860;4.286;2023-07-31T00:27:15;18.20;99.90
22738;DHT22;11536;50.860;4.286;2023-07-31T00:29:41;18.20;99.90
22738;DHT22;11536;50.860;4.286;2023-07-31T00:32:07;18.20;99.90
22738;DHT22;11536;50.860;4.286;2023-07-31T00:34:32;18.20;99.90
22738;DHT22;11536;50.860;4.286;2023-07-31T00:36:58;18.20;99.90
22738;DHT22;11536;50.860;4.286;2023-07-31T00:39:23;18.20;99.90
22738;DHT22;11536;50.860;4.286;2023-07-31T00:41:49;18.30;99.90
22738;DHT22;11536;50.860;4.286;2023-07-31T00:44:15;18.30;99.90
22738;DHT22;11536;50.860;4.286;2023-07-31T00:46:41;18.30;99.90
22738;DHT22;11536;50.860;4.286;2023-07-31T00:49:06;18.30;99.90
22738;DHT22;11536;50.860;4.286;2023-07-31T00:51:33;18.30;99.90
22738;DHT22;11536;50.860;4.286;2023-07-31T00:53:59;18.30;99.90
22738;DHT22;11536;50.860;4.286;2023-07-31T00:56:25;18.30;99.90
22738;DHT22;11536;50.860;4.286;2023-07-31T00:58:51;18.30;99.90
22738;DHT22;11536;50.860;4.286;2023-07-31T01:01:16;18.30;99.90
22738;DHT22;11536;50.860;4.286;2023-07-31T01:03:42;18.30;99.90
22738;DHT22;11536;50.860;4.286;2023-07-31T01:06:17;18.30;99.90
22738;DHT22;11536;50.860;4.286;2023-07-31T01:09:11;18.30;99.90
22738;DHT22;11536;50.860;4.286;2023-07-31T01:11:50;18.30;99.90
22738;DHT22;11536;50.860;4.286;2023-07-31T01:14:17;18.40;99.90
22738;DHT22;11536;50.860;4.286;2023-07-31T01:16:43;18.40;99.90
22738;DHT22;11536;50.860;4.286;2023-07-31T01:19:09;18.30;99.90
22738;DHT22;11536;50.860;4.286;2023-07-31T01:26:31;18.40;99.90
22738;DHT22;11536;50.860;4.286;2023-07-31T01:29:07;18.40;99.90
22738;DHT22;11536;50.860;4.286;2023-07-31T01:31:35;18.30;99.90
22738;DHT22;11536;50.860;4.286;2023-07-31T01:34:02;18.30;99.90
22738;DHT22;11536;50.860;4.286;2023-07-31T01:36:30;18.30;99.90
22738;DHT22;11536;50.860;4.286;2023-07-31T01:39:00;18.40;99.90
22738;DHT22;11536;50.860;4.286;2023-07-31T01:41:26;18.40;99.90
22738;DHT22;11536;50.860;4.286;2023-07-31T01:43:52;18.40;99.90
22738;DHT22;11536;50.860;4.286;2023-07-31T01:46:17;18.40;99.90
22738;DHT22;11536;50.860;4.286;2023-07-31T01:48:43;18.40;99.90
22738;DHT22;11536;50.860;4.286;2023-07-31T01:51:08;18.40;99.90
22738;DHT22;11536;50.860;4.286;2023-07-31T01:53:34;18.40;99.90
22738;DHT22;11536;50.860;4.286;2023-07-31T01:56:00;18.40;99.90
22738;DHT22;11536;50.860;4.286;2023-07-31T01:58:25;18.40;99.90
22738;DHT22;11536;50.860;4.286;2023-07-31T02:00:51;18.40;99.90
22738;DHT22;11536;50.860;4.286;2023-07-31T02:03:16;18.40;99.90
22738;DHT22;11536;50.860;4.286;2023-07-31T02:05:49;18.40;99.90
22738;DHT22;11536;50.860;4.286;2023-07-31T02:08:15;18.40;99.90
22738;DHT22;11536;50.860;4.286;2023-07-31T02:10:41;18.40;99.90
22738;DHT22;11536;50.860;4.286;2023-07-31T02:13:07;18.40;99.90
22738;DHT22;11536;50.860;4.286;2023-07-31T02:15:33;18.50;99.90
22738;DHT22;11536;50.860;4.286;2023-07-31T02:17:59;18.50;99.90
22738;DHT22;11536;50.860;4.286;2023-07-31T02:20:24;18.40;99.90
22738;DHT22;11536;50.860;4.286;2023-07-31T02:22:50;18.40;99.90
22738;DHT22;11536;50.860;4.286;2023-07-31T02:25:15;18.40;99.90
22738;DHT22;11536;50.860;4.286;2023-07-31T02:27:41;18.50;99.90
22738;DHT22;11536;50.860;4.286;2023-07-31T02:30:07;18.50;99.90
22738;DHT22;11536;50.860;4.286;2023-07-31T02:32:33;18.50;99.90
22738;DHT22;11536;50.860;4.286;2023-07-31T02:34:59;18.50;99.90
22738;DHT22;11536;50.860;4.286;2023-07-31T02:37:25;18.50;99.90
22738;DHT22;11536;50.860;4.286;2023-07-31T02:39:51;18.50;99.90
22738;DHT22;11536;50.860;4.286;2023-07-31T02:42:16;18.50;99.90
22738;DHT22;11536;50.860;4.286;2023-07-31T02:44:42;18.50;99.90
22738;DHT22;11536;50.860;4.286;2023-07-31T02:47:07;18.50;99.90
22738;DHT22;11536;50.860;4.286;2023-07-31T02:49:33;18.50;99.90
22738;DHT22;11536;50.860;4.286;2023-07-31T02:51:59;18.50;99.90
22738;DHT22;11536;50.860;4.286;2023-07-31T02:54:24;18.50;99.90
22738;DHT22;11536;50.860;4.286;2023-07-31T02:56:50;18.60;99.90
22738;DHT22;11536;50.860;4.286;2023-07-31T02:59:17;18.50;99.90
22738;DHT22;11536;50.860;4.286;2023-07-31T03:01:44;18.50;99.90
22738;DHT22;11536;50.860;4.286;2023-07-31T03:04:09;18.50;99.90
22738;DHT22;11536;50.860;4.286;2023-07-31T03:06:35;18.50;99.90
22738;DHT22;11536;50.860;4.286;2023-07-31T03:09:00;18.50;99.90
22738;DHT22;11536;50.860;4.286;2023-07-31T03:11:26;18.50;99.90
22738;DHT22;11536;50.860;4.286;2023-07-31T03:13:54;18.50;99.90
22738;DHT22;11536;50.860;4.286;2023-07-31T03:16:20;18.50;99.90
22738;DHT22;11536;50.860;4.286;2023-07-31T03:18:46;18.50;99.90
22738;DHT22;11536;50.860;4.286;2023-07-31T03:21:12;18.50;99.90
22738;DHT22;11536;50.860;4.286;2023-07-31T03:23:38;18.40;99.90
22738;DHT22;11536;50.860;4.286;2023-07-31T03:26:06;18.40;99.90
22738;DHT22;11536;50.860;4.286;2023-07-31T03:28:32;18.50;99.90
22738;DHT22;11536;50.860;4.286;2023-07-31T03:30:58;18.50;99.90
22738;DHT22;11536;50.860;4.286;2023-07-31T03:33:23;18.50;99.90
22738;DHT22;11536;50.860;4.286;2023-07-31T03:35:49;18.50;99.90
22738;DHT22;11536;50.860;4.286;2023-07-31T03:38:15;18.40;99.90
22738;DHT22;11536;50.860;4.286;2023-07-31T03:40:40;18.40;99.90
22738;DHT22;11536;50.860;4.286;2023-07-31T03:43:06;18.40;99.90
22738;DHT22;11536;50.860;4.286;2023-07-31T03:45:31;18.40;99.90
22738;DHT22;11536;50.860;4.286;2023-07-31T03:47:57;18.40;99.90
22738;DHT22;11536;50.860;4.286;2023-07-31T03:50:23;18.40;99.90
22738;DHT22;11536;50.860;4.286;2023-07-31T03:52:50;18.30;99.90
22738;DHT22;11536;50.860;4.286;2023-07-31T03:55:16;18.30;99.90
22738;DHT22;11536;50.860;4.286;2023-07-31T03:57:41;18.30;99.90
22738;DHT22;11536;50.860;4.286;2023-07-31T04:00:07;18.30;99.90
22738;DHT22;11536;50.860;4.286;2023-07-31T04:02:33;18.30;99.90
22738;DHT22;11536;50.860;4.286;2023-07-31T04:04:59;18.30;99.90
22738;DHT22;11536;50.860;4.286;2023-07-31T04:07:24;18.30;99.90
22738;DHT22;11536;50.860;4.286;2023-07-31T04:09:50;18.30;99.90
22738;DHT22;11536;50.860;4.286;2023-07-31T04:12:15;18.30;99.90
22738;DHT22;11536;50.860;4.286;2023-07-31T04:14:41;18.30;99.90
22738;DHT22;11536;50.860;4.286;2023-07-31T04:17:06;18.30;99.90
22738;DHT22;11536;50.860;4.286;2023-07-31T04:19:32;18.20;99.90
22738;DHT22;11536;50.860;4.286;2023-07-31T04:21:57;18.20;99.90
22738;DHT22;11536;50.860;4.286;2023-07-31T04:24:23;18.20;99.90
22738;DHT22;11536;50.860;4.286;2023-07-31T04:26:52;18.20;99.90
22738;DHT22;11536;50.860;4.286;2023-07-31T04:29:18;18.20;99.90
22738;DHT22;11536;50.860;4.286;2023-07-31T04:31:44;18.20;99.90
22738;DHT22;11536;50.860;4.286;2023-07-31T04:34:09;18.20;99.90
22738;DHT22;11536;50.860;4.286;2023-07-31T04:36:35;18.20;99.90
22738;DHT22;11536;50.860;4.286;2023-07-31T04:39:01;18.20;99.90
22738;DHT22;11536;50.860;4.286;2023-07-31T04:41:27;18.20;99.90
22738;DHT22;11536;50.860;4.286;2023-07-31T04:43:53;18.20;99.90
22738;DHT22;11536;50.860;4.286;2023-07-31T04:46:18;18.20;99.90
22738;DHT22;11536;50.860;4.286;2023-07-31T04:48:44;18.20;99.90
22738;DHT22;11536;50.860;4.286;2023-07-31T04:51:10;18.20;99.90
22738;DHT22;11536;50.860;4.286;2023-07-31T04:53:36;18.20;99.90
22738;DHT22;11536;50.860;4.286;2023-07-31T04:56:01;18.20;99.90
22738;DHT22;11536;50.860;4.286;2023-07-31T04:58:27;18.20;99.90
22738;DHT22;11536;50.860;4.286;2023-07-31T05:00:53;18.20;99.90
22738;DHT22;11536;50.860;4.286;2023-07-31T05:03:18;18.20;99.90
22738;DHT22;11536;50.860;4.286;2023-07-31T05:05:44;18.20;99.90
22738;DHT22;11536;50.860;4.286;2023-07-31T05:08:09;18.10;99.90
22738;DHT22;11536;50.860;4.286;2023-07-31T05:10:35;18.10;99.90
22738;DHT22;11536;50.860;4.286;2023-07-31T05:13:01;18.10;99.90
22738;DHT22;11536;50.860;4.286;2023-07-31T05:15:30;18.10;99.90
22738;DHT22;11536;50.860;4.286;2023-07-31T05:17:59;18.10;99.90
22738;DHT22;11536;50.860;4.286;2023-07-31T05:20:24;18.10;99.90
22738;DHT22;11536;50.860;4.286;2023-07-31T05:22:51;18.10;99.90
22738;DHT22;11536;50.860;4.286;2023-07-31T05:25:17;18.10;99.90
22738;DHT22;11536;50.860;4.286;2023-07-31T05:27:42;18.10;99.90
22738;DHT22;11536;50.860;4.286;2023-07-31T05:30:08;18.00;99.90
22738;DHT22;11536;50.860;4.286;2023-07-31T05:32:34;18.00;99.90
22738;DHT22;11536;50.860;4.286;2023-07-31T05:34:59;18.00;99.90
22738;DHT22;11536;50.860;4.286;2023-07-31T05:37:25;18.00;99.90
22738;DHT22;11536;50.860;4.286;2023-07-31T05:39:51;18.00;99.90
22738;DHT22;11536;50.860;4.286;2023-07-31T05:42:17;18.00;99.90
22738;DHT22;11536;50.860;4.286;2023-07-31T05:44:43;18.00;99.90
22738;DHT22;11536;50.860;4.286;2023-07-31T05:47:09;18.00;99.90
22738;DHT22;11536;50.860;4.286;2023-07-31T05:49:35;18.00;99.90
22738;DHT22;11536;50.860;4.286;2023-07-31T05:52:00;18.00;99.90
22738;DHT22;11536;50.860;4.286;2023-07-31T05:54:26;18.00;99.90
22738;DHT22;11536;50.860;4.286;2023-07-31T05:56:51;18.00;99.90
22738;DHT22;11536;50.860;4.286;2023-07-31T05:59:17;18.00;99.90
22738;DHT22;11536;50.860;4.286;2023-07-31T06:01:43;18.00;99.90
22738;DHT22;11536;50.860;4.286;2023-07-31T06:04:08;18.00;99.90
22738;DHT22;11536;50.860;4.286;2023-07-31T06:06:34;18.00;99.90
22738;DHT22;11536;50.860;4.286;2023-07-31T06:09:00;17.90;99.90
22738;DHT22;11536;50.860;4.286;2023-07-31T06:11:25;17.90;99.90
22738;DHT22;11536;50.860;4.286;2023-07-31T06:13:51;17.90;99.90
22738;DHT22;11536;50.860;4.286;2023-07-31T06:16:17;17.90;99.90
22738;DHT22;11536;50.860;4.286;2023-07-31T06:18:42;18.00;99.90
22738;DHT22;11536;50.860;4.286;2023-07-31T06:21:09;17.90;99.90
22738;DHT22;11536;50.860;4.286;2023-07-31T06:23:35;17.90;99.90
22738;DHT22;11536;50.860;4.286;2023-07-31T06:26:01;17.90;99.90
22738;DHT22;11536;50.860;4.286;2023-07-31T06:28:31;17.90;99.90
22738;DHT22;11536;50.860;4.286;2023-07-31T06:30:57;17.90;99.90
22738;DHT22;11536;50.860;4.286;2023-07-31T06:33:23;17.90;99.90
22738;DHT22;11536;50.860;4.286;2023-07-31T06:35:49;18.00;99.90
22738;DHT22;11536;50.860;4.286;2023-07-31T06:38:14;18.00;99.90
22738;DHT22;11536;50.860;4.286;2023-07-31T06:40:40;18.00;99.90
22738;DHT22;11536;50.860;4.286;2023-07-31T06:43:06;18.00;99.90
22738;DHT22;11536;50.860;4.286;2023-07-31T06:45:34;18.00;99.90
22738;DHT22;11536;50.860;4.286;2023-07-31T06:48:01;18.00;99.90
22738;DHT22;11536;50.860;4.286;2023-07-31T06:50:31;18.00;99.90
22738;DHT22;11536;50.860;4.286;2023-07-31T06:52:56;18.00;99.90
22738;DHT22;11536;50.860;4.286;2023-07-31T06:55:23;18.00;99.90
22738;DHT22;11536;50.860;4.286;2023-07-31T06:57:50;18.10;99.90
22738;DHT22;11536;50.860;4.286;2023-07-31T07:00:17;18.10;99.90
22738;DHT22;11536;50.860;4.286;2023-07-31T07:02:42;18.10;99.90
22738;DHT22;11536;50.860;4.286;2023-07-31T07:05:08;18.10;99.90
22738;DHT22;11536;50.860;4.286;2023-07-31T07:07:34;18.10;99.90
22738;DHT22;11536;50.860;4.286;2023-07-31T07:10:00;18.10;99.90
22738;DHT22;11536;50.860;4.286;2023-07-31T07:12:29;18.10;99.90
22738;DHT22;11536;50.860;4.286;2023-07-31T07:14:54;18.20;99.90
22738;DHT22;11536;50.860;4.286;2023-07-31T07:17:20;18.20;99.90
22738;DHT22;11536;50.860;4.286;2023-07-31T07:19:48;18.20;99.90
22738;DHT22;11536;50.860;4.286;2023-07-31T07:22:14;18.30;99.90
22738;DHT22;11536;50.860;4.286;2023-07-31T07:24:39;18.30;99.90
22738;DHT22;11536;50.860;4.286;2023-07-31T07:27:05;18.30;99.90
22738;DHT22;11536;50.860;4.286;2023-07-31T07:29:31;18.30;99.90
22738;DHT22;11536;50.860;4.286;2023-07-31T07:31:57;18.30;99.90
22738;DHT22;11536;50.860;4.286;2023-07-31T07:34:25;18.30;99.90
22738;DHT22;11536;50.860;4.286;2023-07-31T07:36:50;18.30;99.90
22738;DHT22;11536;50.860;4.286;2023-07-31T07:39:16;18.30;99.90
22738;DHT22;11536;50.860;4.286;2023-07-31T07:41:41;18.40;99.90
22738;DHT22;11536;50.860;4.286;2023-07-31T07:44:08;18.40;99.90
22738;DHT22;11536;50.860;4.286;2023-07-31T07:46:33;18.40;99.90
22738;DHT22;11536;50.860;4.286;2023-07-31T07:48:59;18.40;99.90
22738;DHT22;11536;50.860;4.286;2023-07-31T07:51:24;18.40;99.90
22738;DHT22;11536;50.860;4.286;2023-07-31T07:53:50;18.40;99.90
22738;DHT22;11536;50.860;4.286;2023-07-31T07:56:16;18.40;99.90
22738;DHT22;11536;50.860;4.286;2023-07-31T07:58:41;18.40;99.90
22738;DHT22;11536;50.860;4.286;2023-07-31T08:01:07;18.50;99.90
22738;DHT22;11536;50.860;4.286;2023-07-31T08:03:33;18.50;99.90
22738;DHT22;11536;50.860;4.286;2023-07-31T08:05:59;18.50;99.90
22738;DHT22;11536;50.860;4.286;2023-07-31T08:08:25;18.50;99.90
22738;DHT22;11536;50.860;4.286;2023-07-31T08:10:51;18.50;99.90
22738;DHT22;11536;50.860;4.286;2023-07-31T08:13:16;18.50;99.90
22738;DHT22;11536;50.860;4.286;2023-07-31T08:15:42;18.50;99.90
22738;DHT22;11536;50.860;4.286;2023-07-31T08:18:11;18.50;99.90
22738;DHT22;11536;50.860;4.286;2023-07-31T08:20:37;18.50;99.90
22738;DHT22;11536;50.860;4.286;2023-07-31T08:23:03;18.50;99.90
22738;DHT22;11536;50.860;4.286;2023-07-31T08:25:29;18.50;99.90
22738;DHT22;11536;50.860;4.286;2023-07-31T08:27:55;18.50;99.90
22738;DHT22;11536;50.860;4.286;2023-07-31T08:30:21;18.50;99.90
22738;DHT22;11536;50.860;4.286;2023-07-31T08:32:47;18.50;99.90
22738;DHT22;11536;50.860;4.286;2023-07-31T08:35:12;18.50;99.90
22738;DHT22;11536;50.860;4.286;2023-07-31T08:37:38;18.50;99.90
22738;DHT22;11536;50.860;4.286;2023-07-31T08:40:05;18.50;99.90
22738;DHT22;11536;50.860;4.286;2023-07-31T08:42:31;18.50;99.90
22738;DHT22;11536;50.860;4.286;2023-07-31T08:44:58;18.50;99.90
22738;DHT22;11536;50.860;4.286;2023-07-31T08:47:25;18.50;99.90
22738;DHT22;11536;50.860;4.286;2023-07-31T08:49:52;18.50;99.90
22738;DHT22;11536;50.860;4.286;2023-07-31T08:52:19;18.50;99.90
22738;DHT22;11536;50.860;4.286;2023-07-31T08:54:44;18.50;99.90
22738;DHT22;11536;50.860;4.286;2023-07-31T08:57:11;18.50;99.90
22738;DHT22;11536;50.860;4.286;2023-07-31T08:59:37;18.50;99.90
22738;DHT22;11536;50.860;4.286;2023-07-31T09:02:08;18.50;99.90
22738;DHT22;11536;50.860;4.286;2023-07-31T09:04:34;18.50;99.90
22738;DHT22;11536;50.860;4.286;2023-07-31T09:07:02;18.50;99.90
22738;DHT22;11536;50.860;4.286;2023-07-31T09:09:31;18.50;99.90
22738;DHT22;11536;50.860;4.286;2023-07-31T09:11:58;18.60;99.90
22738;DHT22;11536;50.860;4.286;2023-07-31T09:14:25;18.60;99.90
22738;DHT22;11536;50.860;4.286;2023-07-31T09:16:53;18.60;99.90
22738;DHT22;11536;50.860;4.286;2023-07-31T09:19:36;18.60;99.90
22738;DHT22;11536;50.860;4.286;2023-07-31T09:22:04;18.60;99.90
22738;DHT22;11536;50.860;4.286;2023-07-31T09:24:32;18.60;99.90
22738;DHT22;11536;50.860;4.286;2023-07-31T09:27:01;18.60;99.90
22738;DHT22;11536;50.860;4.286;2023-07-31T09:29:28;18.70;99.90
22738;DHT22;11536;50.860;4.286;2023-07-31T09:31:55;18.70;99.90
22738;DHT22;11536;50.860;4.286;2023-07-31T09:34:36;18.80;99.90
22738;DHT22;11536;50.860;4.286;2023-07-31T09:37:04;18.80;99.90
22738;DHT22;11536;50.860;4.286;2023-07-31T09:39:30;18.90;99.90
22738;DHT22;11536;50.860;4.286;2023-07-31T09:41:56;18.90;99.90
22738;DHT22;11536;50.860;4.286;2023-07-31T09:44:37;18.90;99.90
22738;DHT22;11536;50.860;4.286;2023-07-31T09:47:05;18.90;99.90
22738;DHT22;11536;50.860;4.286;2023-07-31T09:49:30;18.90;99.90
22738;DHT22;11536;50.860;4.286;2023-07-31T09:51:56;18.90;99.90
22738;DHT22;11536;50.860;4.286;2023-07-31T09:54:22;18.80;99.90
22738;DHT22;11536;50.860;4.286;2023-07-31T09:56:48;18.90;99.90
22738;DHT22;11536;50.860;4.286;2023-07-31T09:59:16;18.90;99.90
22738;DHT22;11536;50.860;4.286;2023-07-31T10:01:43;18.90;99.90
22738;DHT22;11536;50.860;4.286;2023-07-31T10:04:10;18.90;99.90
22738;DHT22;11536;50.860;4.286;2023-07-31T10:06:37;18.90;99.90
22738;DHT22;11536;50.860;4.286;2023-07-31T10:09:06;18.80;99.90
22738;DHT22;11536;50.860;4.286;2023-07-31T10:11:46;18.90;99.90
22738;DHT22;11536;50.860;4.286;2023-07-31T10:14:20;18.90;99.90
22738;DHT22;11536;50.860;4.286;2023-07-31T10:16:46;18.90;99.90
22738;DHT22;11536;50.860;4.286;2023-07-31T10:19:11;18.90;99.90
22738;DHT22;11536;50.860;4.286;2023-07-31T10:21:37;18.90;99.90
22738;DHT22;11536;50.860;4.286;2023-07-31T10:24:21;19.00;99.90
22738;DHT22;11536;50.860;4.286;2023-07-31T10:26:52;19.00;99.90
22738;DHT22;11536;50.860;4.286;2023-07-31T10:29:19;18.90;99.90
22738;DHT22;11536;50.860;4.286;2023-07-31T10:31:46;19.00;99.90
22738;DHT22;11536;50.860;4.286;2023-07-31T10:34:12;19.00;99.90
22738;DHT22;11536;50.860;4.286;2023-07-31T10:36:38;19.00;99.90
22738;DHT22;11536;50.860;4.286;2023-07-31T10:39:04;19.00;99.90
22738;DHT22;11536;50.860;4.286;2023-07-31T10:41:49;19.10;99.90
22738;DHT22;11536;50.860;4.286;2023-07-31T10:44:17;19.10;99.90
22738;DHT22;11536;50.860;4.286;2023-07-31T10:46:42;19.10;99.90
22738;DHT22;11536;50.860;4.286;2023-07-31T10:49:20;19.10;99.90
22738;DHT22;11536;50.860;4.286;2023-07-31T10:51:47;19.20;99.90
22738;DHT22;11536;50.860;4.286;2023-07-31T10:54:14;19.20;99.90
22738;DHT22;11536;50.860;4.286;2023-07-31T10:56:45;19.20;99.90
22738;DHT22;11536;50.860;4.286;2023-07-31T10:59:11;19.30;99.90
22738;DHT22;11536;50.860;4.286;2023-07-31T11:01:54;19.30;99.90
22738;DHT22;11536;50.860;4.286;2023-07-31T11:04:26;19.30;99.90
22738;DHT22;11536;50.860;4.286;2023-07-31T11:06:56;19.40;99.90
22738;DHT22;11536;50.860;4.286;2023-07-31T11:09:24;19.40;99.90
22738;DHT22;11536;50.860;4.286;2023-07-31T11:11:50;19.40;99.90
22738;DHT22;11536;50.860;4.286;2023-07-31T11:14:17;19.40;99.90
22738;DHT22;11536;50.860;4.286;2023-07-31T11:16:43;19.50;99.90
22738;DHT22;11536;50.860;4.286;2023-07-31T11:19:09;19.50;99.90
22738;DHT22;11536;50.860;4.286;2023-07-31T11:21:34;19.60;99.90
22738;DHT22;11536;50.860;4.286;2023-07-31T11:24:00;19.60;99.90
22738;DHT22;11536;50.860;4.286;2023-07-31T11:26:25;19.60;99.90
22738;DHT22;11536;50.860;4.286;2023-07-31T11:28:51;19.60;99.90
22738;DHT22;11536;50.860;4.286;2023-07-31T11:31:18;19.70;99.90
22738;DHT22;11536;50.860;4.286;2023-07-31T11:33:44;19.70;99.90
22738;DHT22;11536;50.860;4.286;2023-07-31T11:36:20;19.70;99.90
22738;DHT22;11536;50.860;4.286;2023-07-31T11:38:46;19.60;99.90
22738;DHT22;11536;50.860;4.286;2023-07-31T11:41:14;19.70;99.90
22738;DHT22;11536;50.860;4.286;2023-07-31T11:43:40;19.70;99.90
22738;DHT22;11536;50.860;4.286;2023-07-31T11:46:05;19.70;99.90
22738;DHT22;11536;50.860;4.286;2023-07-31T11:48:37;19.70;99.90
22738;DHT22;11536;50.860;4.286;2023-07-31T11:51:08;19.70;99.90
22738;DHT22;11536;50.860;4.286;2023-07-31T11:53:47;19.70;99.90
22738;DHT22;11536;50.860;4.286;2023-07-31T11:56:16;19.70;99.90
22738;DHT22;11536;50.860;4.286;2023-07-31T11:58:43;19.70;99.90
22738;DHT22;11536;50.860;4.286;2023-07-31T12:01:11;19.70;99.90
22738;DHT22;11536;50.860;4.286;2023-07-31T12:03:37;19.80;99.90
22738;DHT22;11536;50.860;4.286;2023-07-31T12:06:03;19.70;99.90
22738;DHT22;11536;50.860;4.286;2023-07-31T12:08:29;19.80;99.90
22738;DHT22;11536;50.860;4.286;2023-07-31T12:11:05;19.80;99.90
22738;DHT22;11536;50.860;4.286;2023-07-31T12:13:31;19.80;99.90
22738;DHT22;11536;50.860;4.286;2023-07-31T12:15:59;19.90;99.90
22738;DHT22;11536;50.860;4.286;2023-07-31T12:18:27;19.90;99.90
22738;DHT22;11536;50.860;4.286;2023-07-31T12:20:57;19.90;99.90
22738;DHT22;11536;50.860;4.286;2023-07-31T12:23:28;19.90;99.90
22738;DHT22;11536;50.860;4.286;2023-07-31T12:26:20;19.90;99.90
22738;DHT22;11536;50.860;4.286;2023-07-31T12:28:49;19.90;99.90
22738;DHT22;11536;50.860;4.286;2023-07-31T12:31:16;19.90;99.90
22738;DHT22;11536;50.860;4.286;2023-07-31T12:33:47;19.90;99.90
22738;DHT22;11536;50.860;4.286;2023-07-31T12:36:15;20.00;99.90
22738;DHT22;11536;50.860;4.286;2023-07-31T12:38:42;20.00;99.90
22738;DHT22;11536;50.860;4.286;2023-07-31T12:41:08;20.10;99.90
22738;DHT22;11536;50.860;4.286;2023-07-31T12:43:42;20.10;99.90
22738;DHT22;11536;50.860;4.286;2023-07-31T12:46:08;20.10;99.90
22738;DHT22;11536;50.860;4.286;2023-07-31T12:48:34;20.10;99.90
22738;DHT22;11536;50.860;4.286;2023-07-31T12:51:00;20.20;99.90
22738;DHT22;11536;50.860;4.286;2023-07-31T12:53:26;20.20;99.90
22738;DHT22;11536;50.860;4.286;2023-07-31T12:55:52;20.20;99.90
22738;DHT22;11536;50.860;4.286;2023-07-31T12:58:18;20.20;99.90
22738;DHT22;11536;50.860;4.286;2023-07-31T13:00:43;20.20;99.90
22738;DHT22;11536;50.860;4.286;2023-07-31T13:03:09;20.20;99.90
22738;DHT22;11536;50.860;4.286;2023-07-31T13:05:35;20.20;99.90
22738;DHT22;11536;50.860;4.286;2023-07-31T13:08:00;20.20;99.90
22738;DHT22;11536;50.860;4.286;2023-07-31T13:10:27;20.10;99.90
22738;DHT22;11536;50.860;4.286;2023-07-31T13:12:54;20.10;99.90
22738;DHT22;11536;50.860;4.286;2023-07-31T13:15:19;20.10;99.90
22738;DHT22;11536;50.860;4.286;2023-07-31T13:17:46;20.10;99.90
22738;DHT22;11536;50.860;4.286;2023-07-31T13:20:11;20.10;99.90
22738;DHT22;11536;50.860;4.286;2023-07-31T13:22:37;20.00;99.90
22738;DHT22;11536;50.860;4.286;2023-07-31T13:25:03;19.90;99.90
22738;DHT22;11536;50.860;4.286;2023-07-31T13:27:29;19.90;99.90
22738;DHT22;11536;50.860;4.286;2023-07-31T13:29:54;19.90;99.90
22738;DHT22;11536;50.860;4.286;2023-07-31T13:32:21;19.80;99.90
22738;DHT22;11536;50.860;4.286;2023-07-31T13:34:47;19.80;99.90
22738;DHT22;11536;50.860;4.286;2023-07-31T13:37:14;19.80;99.90
22738;DHT22;11536;50.860;4.286;2023-07-31T13:39:40;19.80;99.90
22738;DHT22;11536;50.860;4.286;2023-07-31T13:42:06;19.70;99.90
22738;DHT22;11536;50.860;4.286;2023-07-31T13:44:37;19.70;99.90
22738;DHT22;11536;50.860;4.286;2023-07-31T13:47:02;19.60;99.90
22738;DHT22;11536;50.860;4.286;2023-07-31T13:49:29;19.60;99.90
22738;DHT22;11536;50.860;4.286;2023-07-31T13:51:55;19.60;99.90
22738;DHT22;11536;50.860;4.286;2023-07-31T13:54:22;19.50;99.90
22738;DHT22;11536;50.860;4.286;2023-07-31T13:56:48;19.50;99.90
22738;DHT22;11536;50.860;4.286;2023-07-31T13:59:13;19.50;99.90
22738;DHT22;11536;50.860;4.286;2023-07-31T14:01:41;19.40;99.90
22738;DHT22;11536;50.860;4.286;2023-07-31T14:04:07;19.40;99.90
22738;DHT22;11536;50.860;4.286;2023-07-31T14:06:33;19.40;99.90
22738;DHT22;11536;50.860;4.286;2023-07-31T14:08:59;19.40;99.90
22738;DHT22;11536;50.860;4.286;2023-07-31T14:11:28;19.40;99.90
22738;DHT22;11536;50.860;4.286;2023-07-31T14:13:55;19.40;99.90
22738;DHT22;11536;50.860;4.286;2023-07-31T14:16:21;19.30;99.90
22738;DHT22;11536;50.860;4.286;2023-07-31T14:18:47;19.30;99.90
22738;DHT22;11536;50.860;4.286;2023-07-31T14:21:13;19.30;99.90
22738;DHT22;11536;50.860;4.286;2023-07-31T14:23:42;19.30;99.90
22738;DHT22;11536;50.860;4.286;2023-07-31T14:26:07;19.30;99.90
22738;DHT22;11536;50.860;4.286;2023-07-31T14:28:33;19.30;99.90
22738;DHT22;11536;50.860;4.286;2023-07-31T14:30:59;19.30;99.90
22738;DHT22;11536;50.860;4.286;2023-07-31T14:33:24;19.30;99.90
22738;DHT22;11536;50.860;4.286;2023-07-31T14:35:50;19.30;99.90
22738;DHT22;11536;50.860;4.286;2023-07-31T14:38:16;19.30;99.90
22738;DHT22;11536;50.860;4.286;2023-07-31T14:40:41;19.30;99.90
22738;DHT22;11536;50.860;4.286;2023-07-31T14:43:07;19.30;99.90
22738;DHT22;11536;50.860;4.286;2023-07-31T14:45:33;19.30;99.90
22738;DHT22;11536;50.860;4.286;2023-07-31T14:47:58;19.30;99.90
22738;DHT22;11536;50.860;4.286;2023-07-31T14:50:25;19.30;99.90
22738;DHT22;11536;50.860;4.286;2023-07-31T14:52:51;19.20;99.90
22738;DHT22;11536;50.860;4.286;2023-07-31T14:55:17;19.20;99.90
22738;DHT22;11536;50.860;4.286;2023-07-31T14:57:43;19.20;99.90
22738;DHT22;11536;50.860;4.286;2023-07-31T15:00:09;19.20;99.90
22738;DHT22;11536;50.860;4.286;2023-07-31T15:02:39;19.20;99.90
22738;DHT22;11536;50.860;4.286;2023-07-31T15:05:05;19.20;99.90
22738;DHT22;11536;50.860;4.286;2023-07-31T15:07:31;19.20;99.90
22738;DHT22;11536;50.860;4.286;2023-07-31T15:09:57;19.20;99.90
22738;DHT22;11536;50.860;4.286;2023-07-31T15:12:23;19.20;99.90
22738;DHT22;11536;50.860;4.286;2023-07-31T15:14:49;19.20;99.90
22738;DHT22;11536;50.860;4.286;2023-07-31T15:17:15;19.20;99.90
22738;DHT22;11536;50.860;4.286;2023-07-31T15:19:41;19.20;99.90
22738;DHT22;11536;50.860;4.286;2023-07-31T15:22:06;19.20;99.90
22738;DHT22;11536;50.860;4.286;2023-07-31T15:24:32;19.20;99.90
22738;DHT22;11536;50.860;4.286;2023-07-31T15:26:58;19.20;99.90
22738;DHT22;11536;50.860;4.286;2023-07-31T15:29:24;19.20;99.90
22738;DHT22;11536;50.860;4.286;2023-07-31T15:31:49;19.10;99.90